sensor_id;sensor_type;location;lat;lon;timestamp;temperature;humidity
28632;DHT22;15818;45.534;5.292;2022-09-17T00:00:39;12.40;99.90
28632;DHT22;15818;45.534;5.292;2022-09-17T00:03:06;12.40;99.90
28632;DHT22;15818;45.534;5.292;2022-09-17T00:05:35;12.30;99.90
28632;DHT22;15818;45.534;5.292;2022-09-17T00:08:05;12.30;99.90
28632;DHT22;15818;45.534;5.292;2022-09-17T00:10:32;12.20;99.90
28632;DHT22;15818;45.534;5.292;2022-09-17T00:13:02;12.20;99.90
28632;DHT22;15818;45.534;5.292;2022-09-17T00:15:28;12.10;99.90
28632;DHT22;15818;45.534;5.292;2022-09-17T00:17:55;12.20;99.90
28632;DHT22;15818;45.534;5.292;2022-09-17T00:20:23;12.20;99.90
28632;DHT22;15818;45.534;5.292;2022-09-17T00:22:49;12.20;99.90
28632;DHT22;15818;45.534;5.292;2022-09-17T00:25:14;12.20;99.90
28632;DHT22;15818;45.534;5.292;2022-09-17T00:27:41;12.20;99.90
28632;DHT22;15818;45.534;5.292;2022-09-17T00:30:06;12.30;99.90
28632;DHT22;15818;45.534;5.292;2022-09-17T00:32:32;12.30;99.90
28632;DHT22;15818;45.534;5.292;2022-09-17T00:34:58;12.30;99.90
28632;DHT22;15818;45.534;5.292;2022-09-17T00:37:24;12.30;99.90
28632;DHT22;15818;45.534;5.292;2022-09-17T00:39:49;12.20;99.90
28632;DHT22;15818;45.534;5.292;2022-09-17T00:42:16;12.20;99.90
28632;DHT22;15818;45.534;5.292;2022-09-17T00:50:05;12.10;99.90
28632;DHT22;15818;45.534;5.292;2022-09-17T00:52:45;12.00;99.90
28632;DHT22;15818;45.534;5.292;2022-09-17T00:57:43;12.10;99.90
28632;DHT22;15818;45.534;5.292;2022-09-17T01:00:13;12.10;99.90
28632;DHT22;15818;45.534;5.292;2022-09-17T01:02:39;12.10;99.90
28632;DHT22;15818;45.534;5.292;2022-09-17T01:05:05;12.10;99.90
28632;DHT22;15818;45.534;5.292;2022-09-17T01:07:43;12.10;99.90
28632;DHT22;15818;45.534;5.292;2022-09-17T01:10:35;12.10;99.90
28632;DHT22;15818;45.534;5.292;2022-09-17T01:29:09;12.00;99.90
28632;DHT22;15818;45.534;5.292;2022-09-17T01:34:21;11.90;99.90
28632;DHT22;15818;45.534;5.292;2022-09-17T01:37:11;11.90;99.90
28632;DHT22;15818;45.534;5.292;2022-09-17T01:42:36;12.00;99.90
28632;DHT22;15818;45.534;5.292;2022-09-17T01:47:55;12.00;99.90
28632;DHT22;15818;45.534;5.292;2022-09-17T01:50:29;11.90;99.90
28632;DHT22;15818;45.534;5.292;2022-09-17T01:52:56;11.90;99.90
28632;DHT22;15818;45.534;5.292;2022-09-17T01:55:27;11.80;99.90
28632;DHT22;15818;45.534;5.292;2022-09-17T01:57:56;11.70;99.90
28632;DHT22;15818;45.534;5.292;2022-09-17T02:00:23;11.70;99.90
28632;DHT22;15818;45.534;5.292;2022-09-17T02:05:42;11.70;99.90
28632;DHT22;15818;45.534;5.292;2022-09-17T02:08:21;11.70;99.90
28632;DHT22;15818;45.534;5.292;2022-09-17T02:10:55;11.70;99.90
28632;DHT22;15818;45.534;5.292;2022-09-17T02:16:16;11.80;99.90
28632;DHT22;15818;45.534;5.292;2022-09-17T02:21:23;11.80;99.90
28632;DHT22;15818;45.534;5.292;2022-09-17T02:24:10;11.80;99.90
28632;DHT22;15818;45.534;5.292;2022-09-17T02:26:40;11.90;99.90
28632;DHT22;15818;45.534;5.292;2022-09-17T02:29:15;11.90;99.90
28632;DHT22;15818;45.534;5.292;2022-09-17T02:31:42;11.90;99.90
28632;DHT22;15818;45.534;5.292;2022-09-17T02:34:08;12.00;99.90
28632;DHT22;15818;45.534;5.292;2022-09-17T02:36:34;12.00;99.90
28632;DHT22;15818;45.534;5.292;2022-09-17T02:39:01;12.00;99.90
28632;DHT22;15818;45.534;5.292;2022-09-17T02:45:22;12.00;99.90
28632;DHT22;15818;45.534;5.292;2022-09-17T03:00:56;11.50;99.90
28632;DHT22;15818;45.534;5.292;2022-09-17T03:03:34;11.50;99.90
28632;DHT22;15818;45.534;5.292;2022-09-17T03:06:03;11.40;99.90
28632;DHT22;15818;45.534;5.292;2022-09-17T03:08:36;11.50;99.90
28632;DHT22;15818;45.534;5.292;2022-09-17T03:11:05;11.40;99.90
28632;DHT22;15818;45.534;5.292;2022-09-17T03:13:31;11.30;99.90
28632;DHT22;15818;45.534;5.292;2022-09-17T03:15:56;11.40;99.90
28632;DHT22;15818;45.534;5.292;2022-09-17T03:18:23;11.30;99.90
28632;DHT22;15818;45.534;5.292;2022-09-17T03:20:49;11.20;99.90
28632;DHT22;15818;45.534;5.292;2022-09-17T03:23:14;11.10;99.90
28632;DHT22;15818;45.534;5.292;2022-09-17T03:25:40;11.10;99.90
28632;DHT22;15818;45.534;5.292;2022-09-17T03:28:06;11.10;99.90
28632;DHT22;15818;45.534;5.292;2022-09-17T03:30:32;11.00;99.90
28632;DHT22;15818;45.534;5.292;2022-09-17T03:32:57;11.10;99.90
28632;DHT22;15818;45.534;5.292;2022-09-17T03:35:23;11.10;99.90
28632;DHT22;15818;45.534;5.292;2022-09-17T03:37:49;11.00;99.90
28632;DHT22;15818;45.534;5.292;2022-09-17T03:40:15;11.00;99.90
28632;DHT22;15818;45.534;5.292;2022-09-17T03:42:41;11.00;99.90
28632;DHT22;15818;45.534;5.292;2022-09-17T03:45:07;11.00;99.90
28632;DHT22;15818;45.534;5.292;2022-09-17T03:47:32;10.90;99.90
28632;DHT22;15818;45.534;5.292;2022-09-17T03:49:58;10.90;99.90
28632;DHT22;15818;45.534;5.292;2022-09-17T03:52:24;10.80;99.90
28632;DHT22;15818;45.534;5.292;2022-09-17T03:54:50;10.80;99.90
28632;DHT22;15818;45.534;5.292;2022-09-17T03:57:15;10.70;99.90
28632;DHT22;15818;45.534;5.292;2022-09-17T03:59:41;10.70;99.90
28632;DHT22;15818;45.534;5.292;2022-09-17T04:02:07;10.70;99.90
28632;DHT22;15818;45.534;5.292;2022-09-17T04:04:32;10.80;99.90
28632;DHT22;15818;45.534;5.292;2022-09-17T04:06:58;10.80;99.90
28632;DHT22;15818;45.534;5.292;2022-09-17T04:09:24;10.70;99.90
28632;DHT22;15818;45.534;5.292;2022-09-17T04:11:49;10.50;99.90
28632;DHT22;15818;45.534;5.292;2022-09-17T04:14:15;10.50;99.90
28632;DHT22;15818;45.534;5.292;2022-09-17T04:16:41;10.50;99.90
28632;DHT22;15818;45.534;5.292;2022-09-17T04:19:07;10.40;99.90
28632;DHT22;15818;45.534;5.292;2022-09-17T04:21:32;10.40;99.90
28632;DHT22;15818;45.534;5.292;2022-09-17T04:23:58;10.40;99.90
28632;DHT22;15818;45.534;5.292;2022-09-17T04:26:24;10.40;99.90
28632;DHT22;15818;45.534;5.292;2022-09-17T04:28:50;10.40;99.90
28632;DHT22;15818;45.534;5.292;2022-09-17T04:31:15;10.30;99.90
28632;DHT22;15818;45.534;5.292;2022-09-17T04:33:41;10.40;99.90
28632;DHT22;15818;45.534;5.292;2022-09-17T04:36:06;10.50;99.90
28632;DHT22;15818;45.534;5.292;2022-09-17T04:38:32;10.50;99.90
28632;DHT22;15818;45.534;5.292;2022-09-17T04:40:59;10.50;99.90
28632;DHT22;15818;45.534;5.292;2022-09-17T04:43:25;10.60;99.90
28632;DHT22;15818;45.534;5.292;2022-09-17T04:45:50;10.60;99.90
28632;DHT22;15818;45.534;5.292;2022-09-17T04:48:16;10.60;99.90
28632;DHT22;15818;45.534;5.292;2022-09-17T04:50:42;10.50;99.90
28632;DHT22;15818;45.534;5.292;2022-09-17T04:53:08;10.50;99.90
28632;DHT22;15818;45.534;5.292;2022-09-17T04:55:34;10.40;99.90
28632;DHT22;15818;45.534;5.292;2022-09-17T04:58:00;10.40;99.90
28632;DHT22;15818;45.534;5.292;2022-09-17T05:00:26;10.30;99.90
28632;DHT22;15818;45.534;5.292;2022-09-17T05:02:52;10.40;99.90
28632;DHT22;15818;45.534;5.292;2022-09-17T05:05:19;10.40;99.90
28632;DHT22;15818;45.534;5.292;2022-09-17T05:07:45;10.20;99.90
28632;DHT22;15818;45.534;5.292;2022-09-17T05:10:11;10.20;99.90
28632;DHT22;15818;45.534;5.292;2022-09-17T05:12:37;10.20;99.90
28632;DHT22;15818;45.534;5.292;2022-09-17T05:15:03;10.20;99.90
28632;DHT22;15818;45.534;5.292;2022-09-17T05:17:29;10.20;99.90
28632;DHT22;15818;45.534;5.292;2022-09-17T05:19:54;10.20;99.90
28632;DHT22;15818;45.534;5.292;2022-09-17T05:22:20;10.10;99.90
28632;DHT22;15818;45.534;5.292;2022-09-17T05:24:46;10.20;99.90
28632;DHT22;15818;45.534;5.292;2022-09-17T05:27:12;10.20;99.90
28632;DHT22;15818;45.534;5.292;2022-09-17T05:29:37;10.30;99.90
28632;DHT22;15818;45.534;5.292;2022-09-17T05:32:04;10.30;99.90
28632;DHT22;15818;45.534;5.292;2022-09-17T05:34:30;10.40;99.90
28632;DHT22;15818;45.534;5.292;2022-09-17T05:36:56;10.50;99.90
28632;DHT22;15818;45.534;5.292;2022-09-17T05:39:22;10.50;99.90
28632;DHT22;15818;45.534;5.292;2022-09-17T05:41:53;10.60;99.90
28632;DHT22;15818;45.534;5.292;2022-09-17T05:44:20;10.60;99.90
28632;DHT22;15818;45.534;5.292;2022-09-17T05:46:46;10.70;99.90
28632;DHT22;15818;45.534;5.292;2022-09-17T05:49:13;10.70;99.90
28632;DHT22;15818;45.534;5.292;2022-09-17T05:51:40;10.80;99.90
28632;DHT22;15818;45.534;5.292;2022-09-17T05:54:06;10.90;99.90
28632;DHT22;15818;45.534;5.292;2022-09-17T05:56:32;10.90;99.90
28632;DHT22;15818;45.534;5.292;2022-09-17T05:58:58;10.90;99.90
28632;DHT22;15818;45.534;5.292;2022-09-17T06:01:24;10.80;99.90
28632;DHT22;15818;45.534;5.292;2022-09-17T06:03:50;10.90;99.90
28632;DHT22;15818;45.534;5.292;2022-09-17T06:06:15;10.80;99.90
28632;DHT22;15818;45.534;5.292;2022-09-17T06:08:41;10.80;99.90
28632;DHT22;15818;45.534;5.292;2022-09-17T06:11:07;10.80;99.90
28632;DHT22;15818;45.534;5.292;2022-09-17T06:13:33;10.70;99.90
28632;DHT22;15818;45.534;5.292;2022-09-17T06:16:00;10.80;99.90
28632;DHT22;15818;45.534;5.292;2022-09-17T06:18:27;10.70;99.90
28632;DHT22;15818;45.534;5.292;2022-09-17T06:20:55;10.80;99.90
28632;DHT22;15818;45.534;5.292;2022-09-17T06:23:21;10.60;99.90
28632;DHT22;15818;45.534;5.292;2022-09-17T06:25:56;10.50;99.90
28632;DHT22;15818;45.534;5.292;2022-09-17T06:28:22;10.50;99.90
28632;DHT22;15818;45.534;5.292;2022-09-17T06:30:48;10.60;99.90
28632;DHT22;15818;45.534;5.292;2022-09-17T06:33:17;10.80;99.90
28632;DHT22;15818;45.534;5.292;2022-09-17T06:35:42;10.80;99.90
28632;DHT22;15818;45.534;5.292;2022-09-17T06:38:08;10.60;99.90
28632;DHT22;15818;45.534;5.292;2022-09-17T06:40:34;10.70;99.90
28632;DHT22;15818;45.534;5.292;2022-09-17T06:42:59;10.60;99.90
28632;DHT22;15818;45.534;5.292;2022-09-17T06:45:25;10.80;99.90
28632;DHT22;15818;45.534;5.292;2022-09-17T06:47:51;10.90;99.90
28632;DHT22;15818;45.534;5.292;2022-09-17T06:50:17;10.80;99.90
28632;DHT22;15818;45.534;5.292;2022-09-17T06:52:53;10.70;99.90
28632;DHT22;15818;45.534;5.292;2022-09-17T06:55:20;10.70;99.90
28632;DHT22;15818;45.534;5.292;2022-09-17T06:57:45;10.90;99.90
28632;DHT22;15818;45.534;5.292;2022-09-17T07:00:12;11.00;99.90
28632;DHT22;15818;45.534;5.292;2022-09-17T07:02:38;11.10;99.90
28632;DHT22;15818;45.534;5.292;2022-09-17T07:05:03;11.10;99.90
28632;DHT22;15818;45.534;5.292;2022-09-17T07:07:30;11.10;99.90
28632;DHT22;15818;45.534;5.292;2022-09-17T07:09:55;11.30;99.90
28632;DHT22;15818;45.534;5.292;2022-09-17T07:12:21;11.50;99.90
28632;DHT22;15818;45.534;5.292;2022-09-17T07:14:48;11.50;99.90
28632;DHT22;15818;45.534;5.292;2022-09-17T07:17:14;11.50;99.90
28632;DHT22;15818;45.534;5.292;2022-09-17T07:19:40;11.60;99.90
28632;DHT22;15818;45.534;5.292;2022-09-17T07:22:06;11.80;99.90
28632;DHT22;15818;45.534;5.292;2022-09-17T07:24:33;11.90;99.90
28632;DHT22;15818;45.534;5.292;2022-09-17T07:26:59;11.80;99.90
28632;DHT22;15818;45.534;5.292;2022-09-17T07:29:25;11.60;99.90
28632;DHT22;15818;45.534;5.292;2022-09-17T07:31:54;11.60;99.90
28632;DHT22;15818;45.534;5.292;2022-09-17T07:34:20;11.80;99.90
28632;DHT22;15818;45.534;5.292;2022-09-17T07:36:46;11.90;99.90
28632;DHT22;15818;45.534;5.292;2022-09-17T07:39:12;12.00;99.90
28632;DHT22;15818;45.534;5.292;2022-09-17T07:41:38;12.00;99.90
28632;DHT22;15818;45.534;5.292;2022-09-17T07:44:03;12.00;99.90
28632;DHT22;15818;45.534;5.292;2022-09-17T07:46:31;11.90;99.90
28632;DHT22;15818;45.534;5.292;2022-09-17T07:48:57;12.10;99.90
28632;DHT22;15818;45.534;5.292;2022-09-17T07:51:24;12.10;99.90
28632;DHT22;15818;45.534;5.292;2022-09-17T07:53:55;12.10;99.90
28632;DHT22;15818;45.534;5.292;2022-09-17T07:56:23;12.20;99.90
28632;DHT22;15818;45.534;5.292;2022-09-17T07:58:49;12.10;99.90
28632;DHT22;15818;45.534;5.292;2022-09-17T08:01:15;12.20;99.90
28632;DHT22;15818;45.534;5.292;2022-09-17T08:03:41;12.30;99.90
28632;DHT22;15818;45.534;5.292;2022-09-17T08:06:15;12.30;99.90
28632;DHT22;15818;45.534;5.292;2022-09-17T08:08:41;12.30;99.90
28632;DHT22;15818;45.534;5.292;2022-09-17T08:11:11;12.50;99.90
28632;DHT22;15818;45.534;5.292;2022-09-17T08:13:37;12.50;99.90
28632;DHT22;15818;45.534;5.292;2022-09-17T08:16:04;12.50;99.90
28632;DHT22;15818;45.534;5.292;2022-09-17T08:18:30;12.50;99.90
28632;DHT22;15818;45.534;5.292;2022-09-17T08:20:56;12.50;99.90
28632;DHT22;15818;45.534;5.292;2022-09-17T08:23:23;12.70;99.90
28632;DHT22;15818;45.534;5.292;2022-09-17T08:25:55;12.70;99.90
28632;DHT22;15818;45.534;5.292;2022-09-17T08:28:26;12.90;99.90
28632;DHT22;15818;45.534;5.292;2022-09-17T08:30:53;13.10;99.90
28632;DHT22;15818;45.534;5.292;2022-09-17T08:33:19;13.30;99.90
28632;DHT22;15818;45.534;5.292;2022-09-17T08:35:54;13.40;99.90
28632;DHT22;15818;45.534;5.292;2022-09-17T08:38:27;13.80;99.90
28632;DHT22;15818;45.534;5.292;2022-09-17T08:44:02;14.50;99.90
28632;DHT22;15818;45.534;5.292;2022-09-17T08:46:45;14.80;99.90
28632;DHT22;15818;45.534;5.292;2022-09-17T08:49:31;16.30;99.90
28632;DHT22;15818;45.534;5.292;2022-09-17T08:54:58;17.70;99.90
28632;DHT22;15818;45.534;5.292;2022-09-17T09:00:18;19.60;99.90
28632;DHT22;15818;45.534;5.292;2022-09-17T09:05:51;19.00;99.90
28632;DHT22;15818;45.534;5.292;2022-09-17T09:08:32;17.50;99.90
28632;DHT22;15818;45.534;5.292;2022-09-17T09:11:05;17.20;99.90
28632;DHT22;15818;45.534;5.292;2022-09-17T09:13:54;17.00;99.90
28632;DHT22;15818;45.534;5.292;2022-09-17T09:16:24;16.20;99.90
28632;DHT22;15818;45.534;5.292;2022-09-17T09:18:57;16.00;99.90
28632;DHT22;15818;45.534;5.292;2022-09-17T09:21:43;16.40;99.90
28632;DHT22;15818;45.534;5.292;2022-09-17T09:24:18;16.80;99.90
28632;DHT22;15818;45.534;5.292;2022-09-17T09:27:14;17.20;99.90
28632;DHT22;15818;45.534;5.292;2022-09-17T09:34:47;17.80;99.90
28632;DHT22;15818;45.534;5.292;2022-09-17T09:37:25;18.60;99.90
28632;DHT22;15818;45.534;5.292;2022-09-17T09:39:54;17.60;99.90
28632;DHT22;15818;45.534;5.292;2022-09-17T09:42:30;17.60;99.90
28632;DHT22;15818;45.534;5.292;2022-09-17T09:45:05;16.90;99.90
28632;DHT22;15818;45.534;5.292;2022-09-17T09:50:33;19.00;99.90
28632;DHT22;15818;45.534;5.292;2022-09-17T09:56:00;19.10;99.90
28632;DHT22;15818;45.534;5.292;2022-09-17T09:58:34;18.50;99.90
28632;DHT22;15818;45.534;5.292;2022-09-17T10:01:01;19.60;99.90
28632;DHT22;15818;45.534;5.292;2022-09-17T10:03:31;19.80;99.90
28632;DHT22;15818;45.534;5.292;2022-09-17T10:06:05;19.20;99.90
28632;DHT22;15818;45.534;5.292;2022-09-17T10:08:36;19.40;99.90
28632;DHT22;15818;45.534;5.292;2022-09-17T10:13:38;20.80;99.90
28632;DHT22;15818;45.534;5.292;2022-09-17T10:18:46;22.20;99.90
28632;DHT22;15818;45.534;5.292;2022-09-17T10:23:57;18.30;99.90
28632;DHT22;15818;45.534;5.292;2022-09-17T10:26:28;17.20;99.90
28632;DHT22;15818;45.534;5.292;2022-09-17T10:28:57;18.90;99.90
28632;DHT22;15818;45.534;5.292;2022-09-17T10:31:23;18.90;99.90
28632;DHT22;15818;45.534;5.292;2022-09-17T10:33:50;18.10;99.90
28632;DHT22;15818;45.534;5.292;2022-09-17T10:36:16;17.50;99.90
28632;DHT22;15818;45.534;5.292;2022-09-17T10:44:27;21.20;99.90
28632;DHT22;15818;45.534;5.292;2022-09-17T10:46:54;22.80;99.90
28632;DHT22;15818;45.534;5.292;2022-09-17T10:49:41;21.60;99.90
28632;DHT22;15818;45.534;5.292;2022-09-17T10:52:45;18.60;99.90
28632;DHT22;15818;45.534;5.292;2022-09-17T10:55:14;16.80;99.90
28632;DHT22;15818;45.534;5.292;2022-09-17T11:00:20;18.70;99.90
28632;DHT22;15818;45.534;5.292;2022-09-17T11:03:16;17.90;99.90
28632;DHT22;15818;45.534;5.292;2022-09-17T11:19:41;24.10;99.90
28632;DHT22;15818;45.534;5.292;2022-09-17T11:22:19;23.70;99.90
28632;DHT22;15818;45.534;5.292;2022-09-17T11:27:41;22.60;99.90
28632;DHT22;15818;45.534;5.292;2022-09-17T11:30:18;22.50;99.90
28632;DHT22;15818;45.534;5.292;2022-09-17T11:33:11;22.80;99.90
28632;DHT22;15818;45.534;5.292;2022-09-17T11:36:02;20.10;99.90
28632;DHT22;15818;45.534;5.292;2022-09-17T11:38:43;22.00;99.90
28632;DHT22;15818;45.534;5.292;2022-09-17T11:41:15;21.10;99.90
28632;DHT22;15818;45.534;5.292;2022-09-17T11:44:02;21.40;99.90
28632;DHT22;15818;45.534;5.292;2022-09-17T11:46:46;20.80;99.90
28632;DHT22;15818;45.534;5.292;2022-09-17T11:49:29;20.50;99.90
28632;DHT22;15818;45.534;5.292;2022-09-17T11:52:20;20.50;99.90
28632;DHT22;15818;45.534;5.292;2022-09-17T11:54:54;20.70;99.90
28632;DHT22;15818;45.534;5.292;2022-09-17T11:57:25;22.00;99.90
28632;DHT22;15818;45.534;5.292;2022-09-17T12:00:02;22.30;99.90
28632;DHT22;15818;45.534;5.292;2022-09-17T12:15:39;21.90;99.90
28632;DHT22;15818;45.534;5.292;2022-09-17T12:20:56;22.70;99.90
28632;DHT22;15818;45.534;5.292;2022-09-17T12:23:37;21.60;99.90
28632;DHT22;15818;45.534;5.292;2022-09-17T12:29:05;22.20;99.90
28632;DHT22;15818;45.534;5.292;2022-09-17T12:31:47;22.20;99.90
28632;DHT22;15818;45.534;5.292;2022-09-17T12:35:22;21.20;99.90
28632;DHT22;15818;45.534;5.292;2022-09-17T12:37:55;21.90;99.90
28632;DHT22;15818;45.534;5.292;2022-09-17T12:40:37;22.30;99.90
28632;DHT22;15818;45.534;5.292;2022-09-17T12:46:10;20.50;99.90
28632;DHT22;15818;45.534;5.292;2022-09-17T12:48:59;20.70;99.90
28632;DHT22;15818;45.534;5.292;2022-09-17T12:59:32;20.70;99.90
28632;DHT22;15818;45.534;5.292;2022-09-17T13:02:21;21.00;99.90
28632;DHT22;15818;45.534;5.292;2022-09-17T13:10:39;21.20;99.90
28632;DHT22;15818;45.534;5.292;2022-09-17T13:15:49;22.50;99.90
28632;DHT22;15818;45.534;5.292;2022-09-17T13:21:15;20.10;99.90
28632;DHT22;15818;45.534;5.292;2022-09-17T13:23:46;20.10;99.90
28632;DHT22;15818;45.534;5.292;2022-09-17T13:26:16;20.10;99.90
28632;DHT22;15818;45.534;5.292;2022-09-17T13:28:48;19.90;99.90
28632;DHT22;15818;45.534;5.292;2022-09-17T13:31:45;19.50;99.90
28632;DHT22;15818;45.534;5.292;2022-09-17T13:39:56;19.20;99.90
28632;DHT22;15818;45.534;5.292;2022-09-17T13:44:51;19.60;99.90
28632;DHT22;15818;45.534;5.292;2022-09-17T13:47:22;19.70;99.90
28632;DHT22;15818;45.534;5.292;2022-09-17T13:50:05;19.50;99.90
28632;DHT22;15818;45.534;5.292;2022-09-17T13:52:53;19.20;99.90
28632;DHT22;15818;45.534;5.292;2022-09-17T13:58:02;18.30;99.90
28632;DHT22;15818;45.534;5.292;2022-09-17T14:00:48;18.30;99.90
28632;DHT22;15818;45.534;5.292;2022-09-17T14:05:54;18.20;99.90
28632;DHT22;15818;45.534;5.292;2022-09-17T14:08:27;18.10;99.90
28632;DHT22;15818;45.534;5.292;2022-09-17T14:10:58;18.10;99.90
28632;DHT22;15818;45.534;5.292;2022-09-17T14:13:41;18.30;99.90
28632;DHT22;15818;45.534;5.292;2022-09-17T14:16:32;18.60;99.90
28632;DHT22;15818;45.534;5.292;2022-09-17T14:21:29;19.50;99.90
28632;DHT22;15818;45.534;5.292;2022-09-17T14:23:57;19.00;99.90
28632;DHT22;15818;45.534;5.292;2022-09-17T14:26:46;18.90;99.90
28632;DHT22;15818;45.534;5.292;2022-09-17T14:32:06;18.60;99.90
28632;DHT22;15818;45.534;5.292;2022-09-17T14:34:33;18.20;99.90
28632;DHT22;15818;45.534;5.292;2022-09-17T14:37:01;18.20;99.90
28632;DHT22;15818;45.534;5.292;2022-09-17T14:39:29;18.20;99.90
28632;DHT22;15818;45.534;5.292;2022-09-17T14:41:59;17.90;99.90
28632;DHT22;15818;45.534;5.292;2022-09-17T14:44:27;17.70;99.90
28632;DHT22;15818;45.534;5.292;2022-09-17T14:47:09;17.80;99.90
28632;DHT22;15818;45.534;5.292;2022-09-17T14:49:39;18.10;99.90
28632;DHT22;15818;45.534;5.292;2022-09-17T14:52:25;18.00;99.90
28632;DHT22;15818;45.534;5.292;2022-09-17T14:55:16;17.90;99.90
28632;DHT22;15818;45.534;5.292;2022-09-17T14:58:04;17.50;99.90
28632;DHT22;15818;45.534;5.292;2022-09-17T15:00:33;17.50;99.90
28632;DHT22;15818;45.534;5.292;2022-09-17T15:02:59;17.30;99.90
28632;DHT22;15818;45.534;5.292;2022-09-17T15:05:30;17.40;99.90
28632;DHT22;15818;45.534;5.292;2022-09-17T15:08:24;17.50;99.90
28632;DHT22;15818;45.534;5.292;2022-09-17T15:10:54;18.00;99.90
28632;DHT22;15818;45.534;5.292;2022-09-17T15:13:27;18.30;99.90
28632;DHT22;15818;45.534;5.292;2022-09-17T15:18:40;17.30;99.90
28632;DHT22;15818;45.534;5.292;2022-09-17T15:21:23;17.30;99.90
28632;DHT22;15818;45.534;5.292;2022-09-17T15:23:55;17.20;99.90
28632;DHT22;15818;45.534;5.292;2022-09-17T15:26:27;17.20;99.90
28632;DHT22;15818;45.534;5.292;2022-09-17T15:28:55;17.30;99.90
28632;DHT22;15818;45.534;5.292;2022-09-17T15:31:22;17.00;99.90
28632;DHT22;15818;45.534;5.292;2022-09-17T15:33:47;17.00;99.90
28632;DHT22;15818;45.534;5.292;2022-09-17T15:36:22;16.90;99.90
28632;DHT22;15818;45.534;5.292;2022-09-17T15:38:49;17.10;99.90
28632;DHT22;15818;45.534;5.292;2022-09-17T15:41:29;16.70;99.90
28632;DHT22;15818;45.534;5.292;2022-09-17T15:46:38;16.00;99.90
28632;DHT22;15818;45.534;5.292;2022-09-17T15:49:33;15.70;99.90
28632;DHT22;15818;45.534;5.292;2022-09-17T15:52:30;15.80;99.90
28632;DHT22;15818;45.534;5.292;2022-09-17T15:54:59;16.10;99.90
28632;DHT22;15818;45.534;5.292;2022-09-17T15:57:26;16.30;99.90
28632;DHT22;15818;45.534;5.292;2022-09-17T15:59:54;16.20;99.90
28632;DHT22;15818;45.534;5.292;2022-09-17T16:02:30;16.30;99.90
28632;DHT22;15818;45.534;5.292;2022-09-17T16:07:46;16.20;99.90
28632;DHT22;15818;45.534;5.292;2022-09-17T16:10:13;15.90;99.90
28632;DHT22;15818;45.534;5.292;2022-09-17T16:12:40;16.00;99.90
28632;DHT22;15818;45.534;5.292;2022-09-17T16:15:06;16.30;99.90
28632;DHT22;15818;45.534;5.292;2022-09-17T16:17:43;16.30;99.90
28632;DHT22;15818;45.534;5.292;2022-09-17T16:20:20;16.30;99.90
28632;DHT22;15818;45.534;5.292;2022-09-17T16:22:48;16.00;99.90
28632;DHT22;15818;45.534;5.292;2022-09-17T16:25:15;15.70;99.90
28632;DHT22;15818;45.534;5.292;2022-09-17T16:27:51;15.70;99.90
28632;DHT22;15818;45.534;5.292;2022-09-17T16:30:20;15.60;99.90
28632;DHT22;15818;45.534;5.292;2022-09-17T16:32:46;15.50;99.90
28632;DHT22;15818;45.534;5.292;2022-09-17T16:35:14;15.20;99.90
28632;DHT22;15818;45.534;5.292;2022-09-17T16:37:40;15.20;99.90
28632;DHT22;15818;45.534;5.292;2022-09-17T16:40:10;15.20;99.90
28632;DHT22;15818;45.534;5.292;2022-09-17T16:42:36;15.30;99.90
28632;DHT22;15818;45.534;5.292;2022-09-17T16:45:02;15.30;99.90
28632;DHT22;15818;45.534;5.292;2022-09-17T16:47:33;15.20;99.90
28632;DHT22;15818;45.534;5.292;2022-09-17T16:50:02;15.10;99.90
28632;DHT22;15818;45.534;5.292;2022-09-17T16:52:28;15.00;99.90
28632;DHT22;15818;45.534;5.292;2022-09-17T16:54:53;15.10;99.90
28632;DHT22;15818;45.534;5.292;2022-09-17T16:57:19;14.90;99.90
28632;DHT22;15818;45.534;5.292;2022-09-17T16:59:45;14.90;99.90
28632;DHT22;15818;45.534;5.292;2022-09-17T17:02:10;14.80;99.90
28632;DHT22;15818;45.534;5.292;2022-09-17T17:04:36;14.60;99.90
28632;DHT22;15818;45.534;5.292;2022-09-17T17:07:02;14.60;99.90
28632;DHT22;15818;45.534;5.292;2022-09-17T17:09:27;14.50;99.90
28632;DHT22;15818;45.534;5.292;2022-09-17T17:11:53;14.60;99.90
28632;DHT22;15818;45.534;5.292;2022-09-17T17:14:18;14.40;99.90
28632;DHT22;15818;45.534;5.292;2022-09-17T17:16:45;14.40;99.90
28632;DHT22;15818;45.534;5.292;2022-09-17T17:19:10;14.30;99.90
28632;DHT22;15818;45.534;5.292;2022-09-17T17:21:36;14.20;99.90
28632;DHT22;15818;45.534;5.292;2022-09-17T17:24:02;14.20;99.90
28632;DHT22;15818;45.534;5.292;2022-09-17T17:26:28;14.00;99.90
28632;DHT22;15818;45.534;5.292;2022-09-17T17:28:53;14.00;99.90
28632;DHT22;15818;45.534;5.292;2022-09-17T17:31:19;13.90;99.90
28632;DHT22;15818;45.534;5.292;2022-09-17T17:33:44;13.90;99.90
28632;DHT22;15818;45.534;5.292;2022-09-17T17:36:10;13.80;99.90
28632;DHT22;15818;45.534;5.292;2022-09-17T17:38:37;13.70;99.90
28632;DHT22;15818;45.534;5.292;2022-09-17T17:43:28;13.50;99.90
28632;DHT22;15818;45.534;5.292;2022-09-17T17:45:54;13.50;99.90
28632;DHT22;15818;45.534;5.292;2022-09-17T17:48:19;13.50;99.90
28632;DHT22;15818;45.534;5.292;2022-09-17T17:50:45;13.40;99.90
28632;DHT22;15818;45.534;5.292;2022-09-17T17:53:11;13.30;99.90
28632;DHT22;15818;45.534;5.292;2022-09-17T17:55:36;13.30;99.90
28632;DHT22;15818;45.534;5.292;2022-09-17T17:58:02;13.20;99.90
28632;DHT22;15818;45.534;5.292;2022-09-17T18:00:28;13.30;99.90
28632;DHT22;15818;45.534;5.292;2022-09-17T18:02:53;13.20;99.90
28632;DHT22;15818;45.534;5.292;2022-09-17T18:05:19;13.10;99.90
28632;DHT22;15818;45.534;5.292;2022-09-17T18:07:46;13.10;99.90
28632;DHT22;15818;45.534;5.292;2022-09-17T18:10:12;13.10;99.90
28632;DHT22;15818;45.534;5.292;2022-09-17T18:12:37;13.00;99.90
28632;DHT22;15818;45.534;5.292;2022-09-17T18:15:04;13.10;99.90
28632;DHT22;15818;45.534;5.292;2022-09-17T18:17:30;13.00;99.90
28632;DHT22;15818;45.534;5.292;2022-09-17T18:19:55;13.10;99.90
28632;DHT22;15818;45.534;5.292;2022-09-17T18:22:22;13.00;99.90
28632;DHT22;15818;45.534;5.292;2022-09-17T18:24:48;13.00;99.90
28632;DHT22;15818;45.534;5.292;2022-09-17T18:27:14;12.90;99.90
28632;DHT22;15818;45.534;5.292;2022-09-17T18:29:39;12.90;99.90
28632;DHT22;15818;45.534;5.292;2022-09-17T18:32:05;12.80;99.90
28632;DHT22;15818;45.534;5.292;2022-09-17T18:34:31;12.80;99.90
28632;DHT22;15818;45.534;5.292;2022-09-17T18:36:56;12.80;99.90
28632;DHT22;15818;45.534;5.292;2022-09-17T18:39:22;12.70;99.90
28632;DHT22;15818;45.534;5.292;2022-09-17T18:41:48;12.80;99.90
28632;DHT22;15818;45.534;5.292;2022-09-17T18:44:14;12.70;99.90
28632;DHT22;15818;45.534;5.292;2022-09-17T18:46:40;12.90;99.90
28632;DHT22;15818;45.534;5.292;2022-09-17T18:49:07;12.90;99.90
28632;DHT22;15818;45.534;5.292;2022-09-17T18:51:33;12.80;99.90